Time;durP1;ratioP1;P1;durP2;ratioP2;P2;SDS_P1;SDS_P2;PMS_P1;PMS_P2;Temp;Humidity;BMP_temperature;BMP_pressure;BME280_temperature;BME280_humidity;BME280_pressure;Samples;Min_cycle;Max_cycle;Signal;HPM_P1;HPM_P2
2022/05/04 05:10:03;;;;;;;2.08;0.80;;;8.20;68.10;;;;;;2036697;27;2231153;-89
2022/05/04 05:11:04;;;;;;;1.95;0.85;;;8.10;68.60;;;;;;2099850;28;20016;-90
2022/05/04 05:12:05;;;;;;;3.03;1.27;;;8.20;69.40;;;;;;2086972;28;20102;-90
2022/05/04 05:13:06;;;;;;;2.30;0.93;;;8.20;70.30;;;;;;2088030;28;20037;-89
2022/05/04 05:16:45;;;;;;;3.03;1.05;;;8.40;72.30;;;;;;2085749;28;20034;-89
2022/05/04 05:17:45;;;;;;;3.80;1.50;;;8.40;72.70;;;;;;2058510;28;20062;-90
2022/05/04 05:18:46;;;;;;;4.05;1.27;;;8.50;72.90;;;;;;2069616;28;20457;-90
2022/05/04 05:19:47;;;;;;;3.20;1.33;;;8.60;73.10;;;;;;2090640;28;20570;-91
2022/05/04 05:20:47;;;;;;;2.95;0.93;;;8.70;73.30;;;;;;2082416;28;20026;-90
2022/05/04 05:21:48;;;;;;;4.20;1.30;;;8.80;73.40;;;;;;2077000;28;20057;-90
2022/05/04 05:22:49;;;;;;;4.13;1.40;;;8.80;73.40;;;;;;2083918;28;20049;-90
2022/05/04 05:23:49;;;;;;;5.30;1.50;;;8.90;73.40;;;;;;2078841;28;20037;-90
2022/05/04 05:24:50;;;;;;;3.72;1.30;;;8.90;73.40;;;;;;2068722;28;20034;-90
2022/05/04 05:25:51;;;;;;;4.80;1.33;;;9.00;73.50;;;;;;2071674;28;20038;-89
2022/05/04 05:26:52;;;;;;;3.17;1.15;;;9.00;73.40;;;;;;2085310;28;20092;-89
2022/05/04 05:27:53;;;;;;;3.83;1.30;;;9.10;73.50;;;;;;2086316;28;20088;-89
2022/05/04 05:28:53;;;;;;;3.45;1.60;;;9.20;73.60;;;;;;2095204;28;20040;-90
2022/05/04 05:29:54;;;;;;;4.43;1.55;;;9.20;73.40;;;;;;2076998;28;20038;-91
2022/05/04 05:30:54;;;;;;;3.80;1.25;;;9.30;73.40;;;;;;2070794;28;20026;-90
2022/05/04 05:31:55;;;;;;;4.03;1.30;;;9.30;73.30;;;;;;2085596;28;20041;-89
2022/05/04 05:32:56;;;;;;;5.05;1.40;;;9.30;73.20;;;;;;2086425;28;20025;-90
2022/05/04 05:33:56;;;;;;;5.97;1.50;;;9.40;73.90;;;;;;2091978;28;20032;-90
2022/05/04 05:34:57;;;;;;;3.22;1.00;;;9.40;73.10;;;;;;2089383;28;20025;-89
2022/05/04 05:35:57;;;;;;;3.22;0.90;;;9.50;73.00;;;;;;2080889;28;20053;-90
2022/05/04 05:36:59;;;;;;;3.60;1.35;;;9.50;73.00;;;;;;2084674;28;20044;-89
2022/05/04 05:38:00;;;;;;;4.63;1.33;;;9.60;73.00;;;;;;2084610;28;20072;-90
2022/05/04 05:39:00;;;;;;;4.15;1.40;;;9.60;72.90;;;;;;2076323;28;20427;-89
2022/05/04 05:40:01;;;;;;;5.63;1.55;;;9.60;72.80;;;;;;2086826;28;21268;-89
2022/05/04 05:41:01;;;;;;;5.70;1.45;;;9.70;72.70;;;;;;2080026;28;20041;-88
2022/05/04 05:42:02;;;;;;;4.53;1.40;;;9.70;72.60;;;;;;2089688;28;20029;-90
2022/05/04 05:43:03;;;;;;;3.88;1.48;;;9.70;72.50;;;;;;2084577;28;20099;-89
2022/05/04 05:44:04;;;;;;;3.92;1.40;;;9.80;72.50;;;;;;2089223;28;20096;-82
2022/05/04 05:45:06;;;;;;;5.13;1.38;;;9.80;72.50;;;;;;2088707;28;20039;-90
2022/05/04 05:46:07;;;;;;;5.38;1.55;;;9.80;72.30;;;;;;2083399;28;20148;-90
2022/05/04 05:47:07;;;;;;;3.22;1.13;;;9.80;72.20;;;;;;2081854;28;20026;-89
2022/05/04 05:48:08;;;;;;;5.65;1.40;;;9.80;72.10;;;;;;2080134;28;20121;-89
2022/05/04 05:49:09;;;;;;;2.53;1.13;;;9.90;72.20;;;;;;2076268;28;20033;-90
2022/05/04 05:50:11;;;;;;;4.68;1.40;;;9.90;72.10;;;;;;2073136;28;20548;-89
2022/05/04 05:51:11;;;;;;;6.45;1.25;;;9.90;72.00;;;;;;2091630;28;20029;-90
2022/05/04 05:52:12;;;;;;;4.03;1.45;;;10.00;71.80;;;;;;2087945;28;20033;-89
2022/05/04 05:53:14;;;;;;;4.15;1.20;;;10.00;71.70;;;;;;2072234;28;20048;-90
2022/05/04 05:54:14;;;;;;;6.35;1.55;;;10.00;71.70;;;;;;2072286;28;20034;-90
2022/05/04 05:55:15;;;;;;;4.65;1.35;;;10.10;71.60;;;;;;2096140;28;20021;-90
2022/05/04 05:56:16;;;;;;;6.15;1.58;;;10.10;71.40;;;;;;2093731;28;20040;-89
2022/05/04 05:57:16;;;;;;;3.58;1.23;;;10.10;71.40;;;;;;2080106;28;20032;-89
2022/05/04 05:58:17;;;;;;;3.88;1.40;;;10.10;71.40;;;;;;2085076;28;20033;-90
2022/05/04 05:59:18;;;;;;;4.38;1.20;;;10.10;71.30;;;;;;2080035;28;20038;-90
2022/05/04 06:00:18;;;;;;;6.88;1.45;;;10.10;71.20;;;;;;2079494;28;20123;-89
2022/05/04 06:01:19;;;;;;;4.93;1.40;;;10.10;71.10;;;;;;2079211;28;20040;-90
2022/05/04 06:02:21;;;;;;;4.90;1.30;;;10.10;71.10;;;;;;2071842;28;20396;-90
2022/05/04 06:03:22;;;;;;;4.20;1.27;;;10.10;71.10;;;;;;2080067;28;20145;-91
2022/05/04 06:04:22;;;;;;;3.88;1.08;;;10.10;71.10;;;;;;2079278;28;20034;-90
2022/05/04 06:05:23;;;;;;;3.38;1.35;;;10.10;71.10;;;;;;2088494;28;20052;-90
2022/05/04 06:06:24;;;;;;;5.43;1.30;;;10.10;71.00;;;;;;2094022;28;20445;-91
2022/05/04 06:07:25;;;;;;;3.40;1.40;;;10.10;70.80;;;;;;2084405;28;20108;-90
2022/05/04 06:08:25;;;;;;;3.70;1.13;;;10.20;70.80;;;;;;2070992;28;20550;-91
2022/05/04 06:09:26;;;;;;;2.90;1.15;;;10.20;70.70;;;;;;2077845;28;20046;-91
2022/05/04 06:10:26;;;;;;;4.05;1.20;;;10.20;70.70;;;;;;2077503;28;20120;-86
2022/05/04 06:11:27;;;;;;;5.30;1.33;;;10.20;70.60;;;;;;2062588;28;20439;-90
2022/05/04 06:12:28;;;;;;;2.90;1.00;;;10.20;70.50;;;;;;2073454;28;20121;-91
2022/05/04 06:13:29;;;;;;;3.25;1.15;;;10.20;70.50;;;;;;2084215;28;20033;-91
2022/05/04 06:14:30;;;;;;;5.10;1.20;;;10.30;70.40;;;;;;2090035;28;20663;-91
2022/05/04 06:15:30;;;;;;;4.95;1.23;;;10.30;70.30;;;;;;2096314;28;20033;-91
2022/05/04 06:16:31;;;;;;;3.60;1.15;;;10.30;70.30;;;;;;2070229;28;20049;-91
2022/05/04 06:17:31;;;;;;;4.03;1.20;;;10.30;70.30;;;;;;2071118;28;20512;-91
2022/05/04 06:18:32;;;;;;;3.28;1.10;;;10.30;70.20;;;;;;2096058;28;20433;-91
2022/05/04 06:19:33;;;;;;;3.90;1.20;;;10.30;70.20;;;;;;2086118;28;20037;-85
2022/05/04 06:20:33;;;;;;;5.55;1.25;;;10.30;70.10;;;;;;2085901;28;20537;-91
2022/05/04 06:21:34;;;;;;;5.82;1.40;;;10.30;70.10;;;;;;2089866;28;20049;-90
2022/05/04 06:22:35;;;;;;;2.63;1.20;;;10.30;70.00;;;;;;2082698;28;20035;-92
2022/05/04 06:23:36;;;;;;;2.65;1.08;;;10.30;70.00;;;;;;2083123;28;20487;-92
2022/05/04 06:24:36;;;;;;;4.65;0.95;;;10.40;70.10;;;;;;2073280;28;20030;-93
2022/05/04 06:25:37;;;;;;;3.65;1.10;;;10.40;70.00;;;;;;2074576;28;20040;-91
2022/05/04 06:26:38;;;;;;;3.85;1.20;;;10.50;69.80;;;;;;2084518;28;20037;-91
2022/05/04 06:27:38;;;;;;;6.30;1.75;;;10.50;69.50;;;;;;2079476;28;20029;-90
2022/05/04 06:28:39;;;;;;;6.47;1.40;;;10.50;69.50;;;;;;2081113;28;20065;-92
2022/05/04 06:34:59;;;;;;;3.40;1.30;;;10.60;69.20;;;;;;2087127;28;20446;-89
2022/05/04 06:35:59;;;;;;;4.82;1.20;;;10.60;69.10;;;;;;2082210;28;20052;-91
2022/05/04 06:37:01;;;;;;;2.08;1.00;;;10.60;69.00;;;;;;2074477;28;20037;-91
2022/05/04 06:38:02;;;;;;;3.00;1.00;;;10.60;69.00;;;;;;2082028;28;20048;-91
2022/05/04 06:39:02;;;;;;;5.05;1.10;;;10.60;69.00;;;;;;2090616;28;20096;-90
2022/05/04 06:40:04;;;;;;;4.22;1.20;;;10.60;69.00;;;;;;2082433;28;20114;-92
2022/05/04 06:41:07;;;;;;;4.00;1.27;;;10.70;68.80;;;;;;2072594;28;20084;-90
2022/05/04 06:42:08;;;;;;;4.10;1.20;;;10.70;68.80;;;;;;2066213;28;20117;-90
2022/05/04 06:43:09;;;;;;;2.85;1.10;;;10.70;68.70;;;;;;2066813;28;20509;-90
2022/05/04 06:44:10;;;;;;;4.90;1.10;;;10.70;68.70;;;;;;2083054;28;20021;-90
2022/05/04 06:45:11;;;;;;;4.10;1.27;;;10.70;68.60;;;;;;2082649;28;20057;-90
2022/05/04 06:46:11;;;;;;;5.53;1.25;;;10.70;68.40;;;;;;2069577;28;20026;-90
2022/05/04 06:47:12;;;;;;;4.70;1.23;;;10.70;68.20;;;;;;2074409;28;20436;-90
2022/05/04 06:48:13;;;;;;;3.72;1.23;;;10.70;68.20;;;;;;2070396;28;20045;-91
2022/05/04 06:49:14;;;;;;;6.35;1.15;;;10.70;68.20;;;;;;2061792;28;20027;-90
2022/05/04 06:50:15;;;;;;;3.72;1.00;;;10.70;68.10;;;;;;2080782;28;20099;-90
2022/05/04 06:51:15;;;;;;;4.15;1.20;;;10.80;68.10;;;;;;2090092;28;20096;-90
2022/05/04 06:52:16;;;;;;;2.65;1.10;;;10.80;68.00;;;;;;2071570;28;20022;-90
2022/05/04 06:53:17;;;;;;;6.72;1.50;;;10.80;67.90;;;;;;2073781;28;20522;-91
2022/05/04 06:54:17;;;;;;;3.25;1.08;;;10.90;67.90;;;;;;2088040;28;20037;-90
2022/05/04 06:55:18;;;;;;;4.43;1.20;;;10.90;67.80;;;;;;2090048;28;20395;-90
2022/05/04 06:56:19;;;;;;;5.03;1.20;;;11.00;67.70;;;;;;2073860;28;20085;-90
2022/05/04 06:57:20;;;;;;;3.25;0.90;;;11.00;67.60;;;;;;2072254;28;20611;-91
2022/05/04 06:58:21;;;;;;;5.22;1.27;;;11.00;67.40;;;;;;2087015;28;20044;-90
2022/05/04 06:59:22;;;;;;;3.85;1.05;;;11.00;67.30;;;;;;2089522;28;20040;-90
2022/05/04 07:00:22;;;;;;;4.80;1.20;;;11.00;67.30;;;;;;2085556;28;20155;-90
2022/05/04 07:01:23;;;;;;;2.38;0.90;;;11.00;67.20;;;;;;2090738;28;20108;-90
2022/05/04 07:02:24;;;;;;;4.63;0.98;;;11.10;67.20;;;;;;2074194;28;20026;-90
2022/05/04 07:03:24;;;;;;;3.75;1.10;;;11.10;67.20;;;;;;2074281;28;20492;-90
2022/05/04 07:04:25;;;;;;;2.50;1.00;;;11.20;67.10;;;;;;2072920;28;20468;-91
2022/05/04 07:05:26;;;;;;;3.67;1.00;;;11.20;66.90;;;;;;2072905;28;20427;-90
2022/05/04 07:06:26;;;;;;;3.35;0.90;;;11.30;66.80;;;;;;2081951;28;20393;-91
2022/05/04 07:07:27;;;;;;;4.93;1.08;;;11.40;66.70;;;;;;2082303;28;20120;-90
2022/05/04 07:08:27;;;;;;;3.20;1.20;;;11.40;66.40;;;;;;2089448;28;20033;-91
2022/05/04 07:09:28;;;;;;;4.40;1.05;;;11.40;66.40;;;;;;2084934;28;20029;-90
2022/05/04 07:10:29;;;;;;;3.10;1.05;;;11.40;66.20;;;;;;2090571;28;20397;-91
2022/05/04 07:11:30;;;;;;;2.15;1.00;;;11.40;66.10;;;;;;2090537;28;20120;-90
2022/05/04 07:12:30;;;;;;;3.67;1.10;;;11.40;66.20;;;;;;2090614;28;20061;-90
2022/05/04 07:13:31;;;;;;;5.20;1.10;;;11.50;66.20;;;;;;2082179;28;20045;-91
2022/05/04 07:14:31;;;;;;;3.78;1.00;;;11.50;66.10;;;;;;2071358;28;20037;-91
2022/05/04 07:15:33;;;;;;;3.45;1.17;;;11.60;66.00;;;;;;2066019;28;20042;-91
2022/05/04 07:16:33;;;;;;;4.40;1.10;;;11.70;65.80;;;;;;2080408;28;20415;-91
2022/05/04 07:17:34;;;;;;;4.60;1.13;;;11.70;65.70;;;;;;2089465;28;20028;-90
2022/05/04 07:18:35;;;;;;;2.28;0.90;;;11.80;65.70;;;;;;2076654;28;20061;-90
2022/05/04 07:19:36;;;;;;;2.63;0.88;;;11.80;65.60;;;;;;2079933;28;20376;-91
2022/05/04 07:20:36;;;;;;;3.80;1.05;;;11.90;65.50;;;;;;2089113;28;20035;-90
2022/05/04 07:21:37;;;;;;;4.47;1.00;;;11.90;65.40;;;;;;2065128;28;20150;-91
2022/05/04 07:22:37;;;;;;;3.78;0.90;;;12.00;65.30;;;;;;2065781;28;20077;-89
2022/05/04 07:23:38;;;;;;;3.42;0.90;;;12.00;65.20;;;;;;2082418;28;20033;-91
2022/05/04 07:24:39;;;;;;;4.32;1.02;;;12.10;65.10;;;;;;2082159;28;20112;-91
2022/05/04 07:25:39;;;;;;;2.40;0.95;;;12.20;64.90;;;;;;2082072;28;20033;-91
2022/05/04 07:26:40;;;;;;;2.85;0.80;;;12.30;64.80;;;;;;2076222;28;20504;-92
2022/05/04 07:27:41;;;;;;;3.50;0.85;;;12.30;64.60;;;;;;2066307;28;20064;-91
2022/05/04 07:28:41;;;;;;;2.67;0.90;;;12.40;64.50;;;;;;2080988;28;20518;-91
2022/05/04 07:29:44;;;;;;;3.38;0.90;;;12.40;64.30;;;;;;2073715;28;20068;-91
2022/05/04 07:30:45;;;;;;;2.20;0.85;;;12.50;64.20;;;;;;2074511;28;20022;-91
2022/05/04 07:31:46;;;;;;;2.67;0.88;;;12.60;64.20;;;;;;2087948;28;20025;-91
2022/05/04 07:32:46;;;;;;;3.08;0.82;;;12.60;64.00;;;;;;2088905;28;20462;-90
2022/05/04 07:33:47;;;;;;;2.88;0.95;;;12.70;64.00;;;;;;2084300;28;20052;-91
2022/05/04 07:34:48;;;;;;;2.45;0.77;;;12.70;63.90;;;;;;2082055;28;20459;-92
2022/05/04 07:35:48;;;;;;;4.13;0.82;;;12.70;63.70;;;;;;2090748;28;20056;-92
2022/05/04 07:36:49;;;;;;;3.38;1.02;;;12.80;63.70;;;;;;2090690;28;20128;-91
2022/05/04 07:37:50;;;;;;;2.58;0.98;;;12.80;63.60;;;;;;2090367;28;20052;-90
2022/05/04 07:38:50;;;;;;;4.57;1.13;;;12.90;63.60;;;;;;2089280;28;20047;-92
2022/05/04 07:42:29;;;;;;;3.05;1.00;;;13.00;63.50;;;;;;2080511;28;20021;-90
2022/05/04 07:43:30;;;;;;;3.53;1.05;;;13.00;63.50;;;;;;2073733;28;20116;-91
2022/05/04 07:44:30;;;;;;;4.22;1.08;;;13.10;63.40;;;;;;2066178;28;20730;-90
2022/05/04 07:45:31;;;;;;;3.53;1.20;;;13.10;63.30;;;;;;2075816;28;20055;-90
2022/05/04 07:46:33;;;;;;;2.30;0.90;;;13.10;63.20;;;;;;2074371;28;20022;-90
2022/05/04 07:47:35;;;;;;;5.20;1.15;;;13.10;63.10;;;;;;2073872;28;20068;-90
2022/05/04 07:48:36;;;;;;;5.07;1.02;;;13.10;62.90;;;;;;2074033;28;20076;-90
2022/05/04 07:49:36;;;;;;;4.78;1.25;;;13.10;62.90;;;;;;2082078;28;20084;-90
2022/05/04 07:50:37;;;;;;;3.50;1.17;;;13.20;63.00;;;;;;2082052;28;20465;-90
2022/05/04 07:51:38;;;;;;;2.45;0.90;;;13.20;62.90;;;;;;2075945;28;20030;-91
2022/05/04 07:52:39;;;;;;;3.33;1.02;;;13.20;63.50;;;;;;2084319;28;20029;-92
2022/05/04 07:53:40;;;;;;;4.20;1.08;;;13.30;62.80;;;;;;2081692;28;20030;-90
2022/05/04 07:54:40;;;;;;;3.50;1.17;;;13.30;62.60;;;;;;2068746;28;20030;-91
2022/05/04 07:55:41;;;;;;;3.28;1.40;;;13.40;62.50;;;;;;2082135;28;20399;-90
2022/05/04 07:56:42;;;;;;;2.78;1.02;;;13.40;62.30;;;;;;2074031;28;20029;-91
2022/05/04 07:57:47;;;;;;;4.00;1.08;;;13.50;62.30;;;;;;2073999;28;20034;-91
2022/05/04 07:58:47;;;;;;;2.38;1.10;;;13.50;62.10;;;;;;2082566;28;20029;-90
2022/05/04 08:05:07;;;;;;;3.65;1.30;;;13.60;61.60;;;;;;2087284;28;20077;-92
2022/05/04 08:06:11;;;;;;;5.03;1.23;;;13.60;61.70;;;;;;2081978;28;20032;-91
2022/05/04 08:07:12;;;;;;;2.45;1.20;;;13.60;61.70;;;;;;2082382;28;20033;-91
2022/05/04 08:08:13;;;;;;;3.90;1.20;;;13.60;61.50;;;;;;2081718;28;20025;-91
2022/05/04 08:09:14;;;;;;;3.67;1.10;;;13.60;61.30;;;;;;2073845;28;20034;-90
2022/05/04 08:10:14;;;;;;;5.38;1.10;;;13.60;61.30;;;;;;2081438;28;20077;-91
2022/05/04 08:11:15;;;;;;;2.83;1.02;;;13.70;61.30;;;;;;2080672;28;20527;-91
2022/05/04 08:12:16;;;;;;;3.53;1.25;;;13.60;61.30;;;;;;2073347;28;20504;-91
2022/05/04 08:13:19;;;;;;;3.28;1.17;;;13.70;61.40;;;;;;2073271;28;20026;-91
2022/05/04 08:14:20;;;;;;;4.32;1.20;;;13.70;61.30;;;;;;2073924;28;20523;-91
2022/05/04 08:15:20;;;;;;;4.07;1.30;;;13.70;61.30;;;;;;2073334;28;20333;-91
2022/05/04 08:16:21;;;;;;;3.60;1.08;;;13.80;61.30;;;;;;2073747;28;20040;-91
2022/05/04 08:17:21;;;;;;;3.15;1.05;;;13.80;61.30;;;;;;2065903;28;20026;-91
2022/05/04 08:18:23;;;;;;;2.80;1.00;;;13.90;61.10;;;;;;2073749;28;20404;-91
2022/05/04 08:19:23;;;;;;;2.75;1.10;;;14.00;61.00;;;;;;2075606;28;20045;-91
2022/05/04 08:20:25;;;;;;;3.03;1.10;;;14.10;60.90;;;;;;2069933;28;20053;-91
2022/05/04 08:21:26;;;;;;;3.05;1.10;;;14.10;60.70;;;;;;2081410;28;20033;-91
2022/05/04 08:22:27;;;;;;;3.08;1.23;;;14.20;60.50;;;;;;2081640;28;20048;-89
2022/05/04 08:23:28;;;;;;;3.67;1.10;;;14.30;60.50;;;;;;2082173;28;20044;-91
2022/05/04 08:24:28;;;;;;;4.20;1.20;;;14.40;60.30;;;;;;2081729;28;20030;-90
2022/05/04 08:25:30;;;;;;;3.25;1.08;;;14.40;60.20;;;;;;2073622;28;20492;-90
2022/05/04 08:26:31;;;;;;;3.33;1.27;;;14.50;59.90;;;;;;2081708;28;20047;-91
2022/05/04 08:27:32;;;;;;;3.58;1.13;;;14.50;59.80;;;;;;2081422;28;20067;-90
2022/05/04 08:28:33;;;;;;;3.25;1.10;;;14.50;59.90;;;;;;2081582;28;20029;-89
2022/05/04 08:29:34;;;;;;;2.92;1.20;;;14.50;59.80;;;;;;2081830;28;20037;-91
2022/05/04 08:30:34;;;;;;;2.70;1.00;;;14.50;59.80;;;;;;2081344;28;20033;-91
2022/05/04 08:31:36;;;;;;;3.78;1.30;;;14.50;59.70;;;;;;2081598;28;20065;-91
2022/05/04 08:32:36;;;;;;;4.18;1.05;;;14.60;60.40;;;;;;2081939;28;20041;-92
2022/05/04 08:33:37;;;;;;;3.45;1.10;;;14.60;59.60;;;;;;2079939;28;20760;-91
2022/05/04 08:34:38;;;;;;;4.57;1.10;;;14.70;59.60;;;;;;2081651;28;20067;-92
2022/05/04 08:35:39;;;;;;;2.78;1.10;;;14.70;59.50;;;;;;2081716;28;20112;-91
2022/05/04 08:36:39;;;;;;;3.17;1.20;;;14.70;59.50;;;;;;2073316;28;20065;-91
2022/05/04 08:37:40;;;;;;;2.83;1.20;;;14.70;60.00;;;;;;2073622;28;20032;-91
2022/05/04 08:38:41;;;;;;;4.22;1.25;;;14.70;59.30;;;;;;2072708;28;20030;-91
2022/05/04 08:39:42;;;;;;;2.17;0.90;;;14.80;59.40;;;;;;2079705;28;20095;-91
2022/05/04 08:40:43;;;;;;;4.05;0.90;;;14.80;59.20;;;;;;2081802;28;20411;-92
2022/05/04 08:41:44;;;;;;;4.60;1.10;;;14.80;59.10;;;;;;2073516;28;20062;-91
2022/05/04 08:42:45;;;;;;;2.22;0.95;;;14.80;58.90;;;;;;2081458;28;20097;-91
2022/05/04 08:43:50;;;;;;;3.35;1.23;;;14.90;58.90;;;;;;2079579;28;20017;-92
2022/05/04 08:44:56;;;;;;;4.55;1.10;;;14.90;58.70;;;;;;2081575;28;20052;-91
2022/05/04 08:46:00;;;;;;;5.25;1.13;;;15.00;58.70;;;;;;2071524;28;20709;-91
2022/05/04 08:47:04;;;;;;;2.78;1.00;;;15.00;58.50;;;;;;2073813;28;20022;-91
2022/05/04 08:48:08;;;;;;;3.25;1.20;;;15.10;58.30;;;;;;2074204;28;20029;-91
2022/05/04 08:49:12;;;;;;;2.85;1.10;;;15.10;58.20;;;;;;2081245;28;20032;-91
2022/05/04 08:50:17;;;;;;;2.47;0.90;;;15.20;58.20;;;;;;2082120;28;20384;-92
2022/05/04 08:51:18;;;;;;;3.40;0.93;;;15.20;57.90;;;;;;2082107;28;20029;-92
2022/05/04 08:52:20;;;;;;;2.65;1.08;;;15.30;57.90;;;;;;2082127;28;20499;-91
2022/05/04 08:53:20;;;;;;;2.90;1.00;;;15.30;57.70;;;;;;2082280;28;20128;-92
2022/05/04 08:54:21;;;;;;;3.40;1.00;;;15.30;57.50;;;;;;2081063;28;20025;-92
2022/05/04 08:55:23;;;;;;;4.30;1.23;;;15.30;57.50;;;;;;2073506;28;20491;-92
2022/05/04 08:56:23;;;;;;;3.92;1.10;;;15.20;57.50;;;;;;2068473;28;20030;-91
2022/05/04 08:57:24;;;;;;;3.60;1.00;;;15.30;57.50;;;;;;2081995;28;20034;-91
2022/05/04 08:58:25;;;;;;;2.95;1.10;;;15.20;57.30;;;;;;2081690;28;20053;-91
2022/05/04 08:59:28;;;;;;;3.30;0.90;;;15.30;57.30;;;;;;2081944;28;20041;-92
2022/05/04 09:00:28;;;;;;;2.20;1.20;;;15.30;57.30;;;;;;2082111;28;20472;-91
2022/05/04 09:01:31;;;;;;;2.15;1.02;;;15.30;57.20;;;;;;2081683;28;20029;-91
2022/05/04 09:02:32;;;;;;;3.00;1.10;;;15.30;57.10;;;;;;2081645;28;20021;-91
2022/05/04 09:03:33;;;;;;;2.70;1.10;;;15.40;57.10;;;;;;2078127;28;20050;-91
2022/05/04 09:04:33;;;;;;;2.33;1.00;;;15.40;57.00;;;;;;2074011;28;20034;-91
2022/05/04 09:05:41;;;;;;;2.72;1.08;;;15.40;56.80;;;;;;2072860;28;20026;-91
2022/05/04 09:06:46;;;;;;;1.73;0.80;;;15.40;56.80;;;;;;2067674;28;20089;-91
2022/05/04 09:07:49;;;;;;;3.53;1.15;;;15.50;56.90;;;;;;2081670;28;20049;-91
2022/05/04 09:08:59;;;;;;;2.80;0.90;;;15.50;56.70;;;;;;2081536;28;20479;-91
2022/05/04 09:10:00;;;;;;;2.92;0.93;;;15.50;56.50;;;;;;2078563;28;20041;-92
2022/05/04 09:11:00;;;;;;;3.10;1.00;;;15.60;56.50;;;;;;2079920;28;20072;-92
2022/05/04 09:12:03;;;;;;;2.63;0.70;;;15.60;56.40;;;;;;2081392;28;20538;-92
2022/05/04 09:13:05;;;;;;;3.17;0.90;;;15.60;56.40;;;;;;2081668;28;20064;-91
2022/05/04 09:14:14;;;;;;;2.63;1.00;;;15.70;56.40;;;;;;2073446;28;20034;-92
2022/05/04 09:15:27;;;;;;;2.85;0.82;;;15.70;56.20;;;;;;2081842;28;20022;-90
2022/05/04 09:16:32;;;;;;;2.55;0.85;;;15.80;56.20;;;;;;2080475;28;20124;-91
2022/05/04 09:17:33;;;;;;;2.85;0.85;;;15.80;56.10;;;;;;2073936;28;20484;-92
2022/05/04 09:18:34;;;;;;;2.88;1.20;;;15.90;56.00;;;;;;2082038;28;20029;-91
2022/05/04 09:19:35;;;;;;;4.70;1.27;;;15.90;55.80;;;;;;2081831;28;20364;-91
2022/05/04 09:20:47;;;;;;;4.70;1.20;;;15.90;55.70;;;;;;2082292;28;20028;-91
2022/05/04 09:21:48;;;;;;;3.72;0.98;;;15.90;55.50;;;;;;2081452;28;20068;-91
2022/05/04 09:22:52;;;;;;;2.95;1.00;;;16.00;55.50;;;;;;2081678;28;20025;-91
2022/05/04 09:23:53;;;;;;;3.22;1.23;;;16.00;55.30;;;;;;2082081;28;20107;-91
2022/05/04 09:24:56;;;;;;;2.28;0.90;;;16.00;55.30;;;;;;2082131;28;20040;-92
2022/05/04 09:25:58;;;;;;;1.65;0.80;;;16.00;55.30;;;;;;2082155;28;20093;-91
2022/05/04 09:26:59;;;;;;;2.67;1.23;;;16.00;55.20;;;;;;2081173;28;20072;-91
2022/05/04 09:27:59;;;;;;;3.33;1.10;;;16.10;55.20;;;;;;2081500;28;20021;-91
2022/05/04 09:29:03;;;;;;;2.58;1.00;;;16.10;55.10;;;;;;2081280;28;20026;-91
2022/05/04 09:30:05;;;;;;;4.28;1.10;;;16.10;55.10;;;;;;2073110;28;20030;-92
2022/05/04 09:31:08;;;;;;;2.05;0.90;;;16.10;55.10;;;;;;2065679;28;20033;-92
2022/05/04 09:32:13;;;;;;;3.85;1.10;;;16.10;55.00;;;;;;2073094;28;20014;-91
2022/05/04 09:33:21;;;;;;;3.25;1.10;;;16.10;54.90;;;;;;2081333;28;20578;-91
2022/05/04 09:34:34;;;;;;;2.97;1.10;;;16.10;54.80;;;;;;2081428;28;20065;-91
2022/05/04 09:35:34;;;;;;;2.95;0.90;;;16.10;54.80;;;;;;2080749;28;20442;-92
2022/05/04 09:45:10;;;;;;;3.15;0.95;;;16.30;54.60;;;;;;2073847;28;20041;-90
2022/05/04 09:46:11;;;;;;;3.42;1.40;;;16.30;54.50;;;;;;2073881;28;20480;-91
2022/05/04 09:47:19;;;;;;;3.30;1.17;;;16.30;54.40;;;;;;2066188;28;20045;-87
2022/05/04 09:48:30;;;;;;;4.50;1.38;;;16.40;54.40;;;;;;2070263;28;20518;-90
2022/05/04 09:49:33;;;;;;;3.13;1.05;;;16.40;54.40;;;;;;2080056;28;20119;-90
2022/05/04 09:50:40;;;;;;;2.88;1.08;;;16.50;54.10;;;;;;2081358;28;20045;-91
2022/05/04 09:51:45;;;;;;;3.15;1.17;;;16.50;53.80;;;;;;2081354;28;20021;-89
2022/05/04 09:52:48;;;;;;;4.40;1.38;;;16.40;53.70;;;;;;2082429;28;20029;-91
2022/05/04 09:53:49;;;;;;;3.65;1.10;;;16.40;53.70;;;;;;2081886;28;20052;-91
2022/05/04 09:54:52;;;;;;;3.17;1.35;;;16.40;53.60;;;;;;2072932;28;20492;-90
2022/05/04 09:55:55;;;;;;;4.63;1.35;;;16.40;53.60;;;;;;2061630;28;20038;-91
2022/05/04 09:57:01;;;;;;;2.65;1.20;;;16.30;53.60;;;;;;2081226;28;20025;-91
2022/05/04 09:58:03;;;;;;;2.55;1.13;;;16.40;53.70;;;;;;2083407;28;20025;-91
2022/05/04 09:59:05;;;;;;;2.15;1.10;;;16.40;53.70;;;;;;2083266;28;20140;-90
2022/05/04 10:00:08;;;;;;;2.58;1.20;;;16.50;53.60;;;;;;2083688;28;20060;-90
2022/05/04 10:01:09;;;;;;;2.63;1.20;;;16.50;53.50;;;;;;2074777;28;20022;-90
2022/05/04 10:02:10;;;;;;;5.72;1.48;;;16.40;53.40;;;;;;2066646;28;20485;-90
2022/05/04 10:03:12;;;;;;;2.85;1.30;;;16.50;53.50;;;;;;2084080;28;20033;-90
2022/05/04 10:04:12;;;;;;;3.42;1.10;;;16.50;53.40;;;;;;2083784;28;20514;-91
2022/05/04 10:05:14;;;;;;;3.30;1.40;;;16.60;53.40;;;;;;2076386;28;20030;-90
2022/05/04 10:06:15;;;;;;;4.32;1.45;;;16.70;53.30;;;;;;2079288;28;20021;-90
2022/05/04 10:07:16;;;;;;;4.43;1.40;;;16.70;53.20;;;;;;2085370;28;20440;-90
2022/05/04 10:08:17;;;;;;;3.63;1.38;;;16.80;53.00;;;;;;2071275;28;20033;-91
2022/05/04 10:09:18;;;;;;;3.20;1.30;;;16.80;53.00;;;;;;2067783;28;20066;-90
2022/05/04 10:10:24;;;;;;;3.58;1.50;;;16.80;53.10;;;;;;2074306;28;20512;-90
2022/05/04 10:11:25;;;;;;;3.53;1.30;;;16.90;53.10;;;;;;2067092;28;20022;-90
2022/05/04 10:12:26;;;;;;;5.20;1.58;;;16.90;52.80;;;;;;2067092;28;20403;-90
2022/05/04 10:13:28;;;;;;;3.50;1.40;;;17.00;52.60;;;;;;2067149;28;20027;-90
2022/05/04 10:14:30;;;;;;;3.70;1.30;;;17.00;52.60;;;;;;2066506;28;20039;-90
2022/05/04 10:15:32;;;;;;;3.78;1.30;;;17.00;52.70;;;;;;2071372;28;20432;-90
2022/05/04 10:16:44;;;;;;;2.95;1.23;;;17.00;52.50;;;;;;2066418;28;20022;-90
2022/05/04 10:18:07;;;;;;;4.40;1.40;;;17.10;52.40;;;;;;2074548;28;20033;-90
2022/05/04 10:19:15;;;;;;;4.25;1.60;;;17.10;52.20;;;;;;2075013;28;20068;-90
2022/05/04 10:20:21;;;;;;;3.42;1.42;;;17.00;52.30;;;;;;2074416;28;20121;-90
2022/05/04 10:21:24;;;;;;;4.22;1.60;;;17.00;52.30;;;;;;2075132;28;20061;-90
2022/05/04 10:22:48;;;;;;;3.08;1.10;;;17.00;52.40;;;;;;2071814;28;20492;-90
2022/05/04 10:23:54;;;;;;;4.07;1.50;;;17.10;52.30;;;;;;2063562;28;20034;-90
2022/05/04 10:24:58;;;;;;;2.92;1.30;;;17.10;52.30;;;;;;2072974;28;20057;-90
2022/05/04 10:25:59;;;;;;;3.00;1.15;;;17.10;52.20;;;;;;2079512;28;20029;-90
2022/05/04 10:27:20;;;;;;;3.65;1.25;;;17.10;52.10;;;;;;2082876;28;20068;-90
2022/05/04 10:28:20;;;;;;;3.78;1.10;;;17.10;52.10;;;;;;2079111;28;20545;-91
2022/05/04 10:30:58;;;;;;;3.22;1.45;;;17.20;52.10;;;;;;2078601;28;20029;-90
2022/05/04 10:31:59;;;;;;;3.50;1.40;;;17.30;52.00;;;;;;2079279;28;20594;-89
2022/05/04 10:33:08;;;;;;;3.03;1.30;;;17.30;51.90;;;;;;2074104;28;20026;-90
2022/05/04 10:34:09;;;;;;;3.15;1.20;;;17.40;51.80;;;;;;2075251;28;20057;-91
2022/05/04 10:35:18;;;;;;;2.42;1.40;;;17.50;51.80;;;;;;2081960;28;20037;-90
2022/05/04 10:36:27;;;;;;;2.92;1.20;;;17.50;51.50;;;;;;2081901;28;20021;-91
2022/05/04 10:37:28;;;;;;;4.28;1.30;;;17.60;51.60;;;;;;2082228;28;20091;-91
2022/05/04 10:38:28;;;;;;;4.18;1.33;;;17.70;51.50;;;;;;2079994;28;20488;-89
2022/05/04 10:39:29;;;;;;;3.35;1.20;;;17.80;51.40;;;;;;2082863;28;20026;-88
2022/05/04 10:40:33;;;;;;;2.25;1.00;;;17.80;51.20;;;;;;2080013;28;20056;-90
2022/05/04 10:41:39;;;;;;;3.10;1.08;;;17.90;51.10;;;;;;2074866;28;20029;-88
2022/05/04 10:42:59;;;;;;;3.72;1.40;;;17.90;51.00;;;;;;2079645;28;20164;-91
2022/05/04 10:44:01;;;;;;;3.50;1.20;;;17.90;51.00;;;;;;2083331;28;20120;-90
2022/05/04 10:45:13;;;;;;;3.15;1.40;;;17.90;51.00;;;;;;2091103;28;20039;-89
2022/05/04 10:46:23;;;;;;;3.40;1.20;;;17.90;50.70;;;;;;2086650;28;20063;-89
2022/05/04 10:47:25;;;;;;;2.85;1.10;;;18.00;50.70;;;;;;2080352;28;20080;-91
2022/05/04 10:48:28;;;;;;;2.78;1.23;;;18.00;50.50;;;;;;2084052;28;20018;-90
2022/05/04 10:49:35;;;;;;;4.68;1.42;;;17.90;50.40;;;;;;2082156;28;20033;-89
2022/05/04 10:51:32;;;;;;;5.13;1.50;;;17.90;50.40;;;;;;2082368;28;20025;-89
2022/05/04 10:52:46;;;;;;;4.30;1.40;;;17.90;50.30;;;;;;2063643;28;20038;-88
2022/05/04 10:53:53;;;;;;;3.00;1.40;;;18.00;50.40;;;;;;2057173;28;20089;-89
2022/05/04 10:54:54;;;;;;;3.28;1.38;;;18.00;50.30;;;;;;2065140;28;20045;-89
2022/05/04 10:56:16;;;;;;;3.83;1.15;;;18.10;50.30;;;;;;2071029;28;20113;-90
2022/05/04 10:57:17;;;;;;;3.92;1.40;;;18.20;50.20;;;;;;2074366;28;20159;-90
2022/05/04 10:58:35;;;;;;;3.45;1.27;;;18.20;50.00;;;;;;2078349;28;20034;-89
2022/05/04 10:59:36;;;;;;;3.25;1.38;;;18.30;49.80;;;;;;2081273;28;20049;-89
2022/05/04 11:01:04;;;;;;;3.58;1.10;;;18.30;49.70;;;;;;2082420;28;20037;-90